Time;durP1;ratioP1;P1;durP2;ratioP2;P2;SDS_P1;SDS_P2;PMS_P1;PMS_P2;Temp;Humidity;BMP_temperature;BMP_pressure;BME280_temperature;BME280_humidity;BME280_pressure;Samples;Min_cycle;Max_cycle;Signal;HPM_P1;HPM_P2
2023/05/15 00:00:58;;;;;;;11.98;10.85;;;;;;;11.39;63.39;100628.22;7396821;19;20014;-68
2023/05/15 00:03:27;;;;;;;15.63;10.65;;;;;;;11.34;63.49;100629.28;7395472;19;20035;-67
2023/05/15 00:05:58;;;;;;;10.63;8.20;;;;;;;11.29;63.79;100621.50;7396611;19;20021;-67
2023/05/15 00:08:27;;;;;;;8.90;6.82;;;;;;;11.24;63.98;100613.75;7396585;19;20014;-67
2023/05/15 00:10:55;;;;;;;7.90;6.85;;;;;;;11.18;64.08;100613.91;7396446;19;20502;-68
2023/05/15 00:13:24;;;;;;;8.82;7.13;;;;;;;11.09;64.27;100606.28;7394937;19;20018;-67
2023/05/15 00:15:52;;;;;;;8.18;7.35;;;;;;;11.04;64.55;100605.53;7396722;19;20014;-68
2023/05/15 00:18:21;;;;;;;9.60;8.68;;;;;;;10.97;64.59;100607.47;7395644;19;20014;-67
2023/05/15 00:20:49;;;;;;;15.82;13.48;;;;;;;10.90;64.76;100601.47;7396505;19;20014;-67
2023/05/15 00:23:20;;;;;;;16.67;15.05;;;;;;;10.84;64.82;100608.66;7395000;19;20115;-68
2023/05/15 00:25:49;;;;;;;14.55;13.15;;;;;;;10.78;64.87;100603.56;7395173;19;20022;-69
2023/05/15 00:28:17;;;;;;;11.38;9.98;;;;;;;10.74;65.02;100600.16;7396200;19;20039;-69
2023/05/15 00:30:46;;;;;;;11.38;8.77;;;;;;;10.70;65.21;100595.88;7396123;19;20066;-68
2023/05/15 00:33:15;;;;;;;7.25;6.53;;;;;;;10.66;65.29;100591.63;7395665;19;20035;-68
2023/05/15 00:35:44;;;;;;;7.53;6.82;;;;;;;10.63;65.33;100589.06;7395771;19;20485;-69
2023/05/15 00:38:13;;;;;;;7.38;6.55;;;;;;;10.56;65.45;100577.84;7394399;19;20024;-69
2023/05/15 00:40:45;;;;;;;7.97;6.03;;;;;;;10.53;65.89;100578.78;7395933;19;20022;-69
2023/05/15 00:43:14;;;;;;;9.35;6.63;;;;;;;10.48;65.98;100572.81;7392187;19;20018;-68
2023/05/15 00:45:45;;;;;;;7.57;6.57;;;;;;;10.46;66.11;100569.34;7395458;19;20031;-68
2023/05/15 00:48:13;;;;;;;7.60;6.68;;;;;;;10.43;66.12;100574.69;7393996;19;20014;-68
2023/05/15 00:50:43;;;;;;;7.28;6.65;;;;;;;10.43;66.22;100577.28;7395763;19;20423;-69
2023/05/15 00:53:12;;;;;;;8.02;7.22;;;;;;;10.42;66.43;100571.16;7395011;19;20026;-69
2023/05/15 00:55:44;;;;;;;7.88;6.32;;;;;;;10.43;66.19;100567.66;7395048;19;20411;-69
2023/05/15 00:58:13;;;;;;;7.70;6.65;;;;;;;10.41;66.32;100558.09;7393416;19;20019;-69
2023/05/15 01:00:41;;;;;;;9.65;6.75;;;;;;;10.38;66.54;100552.94;7395397;19;20022;-69
2023/05/15 01:03:10;;;;;;;6.90;6.30;;;;;;;10.38;66.55;100563.44;7393371;19;20014;-69
2023/05/15 01:05:39;;;;;;;7.30;6.57;;;;;;;10.34;66.66;100553.91;7393458;19;20018;-70
2023/05/15 01:08:15;;;;;;;7.50;6.60;;;;;;;10.32;66.81;100553.06;7393411;19;20023;-70
2023/05/15 01:10:49;;;;;;;9.02;6.85;;;;;;;10.30;66.85;100550.47;7395616;19;20090;-70
2023/05/15 01:13:17;;;;;;;;;;;;;;;10.27;66.90;100550.53;7394905;19;20503;-68
2023/05/15 01:15:45;;;;;;;7.88;6.85;;;;;;;10.23;66.60;100549.75;7394825;19;20323;-68
2023/05/15 01:18:14;;;;;;;8.05;7.25;;;;;;;10.19;66.88;100558.56;7393814;19;20079;-68
2023/05/15 01:21:08;;;;;;;8.23;7.15;;;;;;;10.15;67.35;100553.44;7394406;19;20485;-68
2023/05/15 01:23:54;;;;;;;8.10;6.97;;;;;;;10.11;67.25;100555.28;7393470;19;20091;-68
2023/05/15 01:26:49;;;;;;;8.40;7.00;;;;;;;10.06;67.25;100551.88;7395314;19;20028;-68
2023/05/15 01:29:28;;;;;;;7.85;6.93;;;;;;;10.03;67.26;100549.34;7392364;19;20506;-68
2023/05/15 01:32:03;;;;;;;7.88;6.90;;;;;;;10.00;67.36;100552.03;7393140;19;20032;-68
2023/05/15 01:34:40;;;;;;;8.57;6.53;;;;;;;9.97;67.30;100552.97;7393001;19;20026;-68
2023/05/15 01:37:11;;;;;;;8.02;7.22;;;;;;;9.94;67.36;100547.78;7394138;19;20427;-68
2023/05/15 01:39:42;;;;;;;7.85;6.50;;;;;;;9.90;67.45;100549.59;7392406;19;20022;-68
2023/05/15 01:42:14;;;;;;;7.75;6.82;;;;;;;9.87;67.39;100551.44;7394561;19;20070;-68
2023/05/15 01:44:53;;;;;;;8.27;6.95;;;;;;;9.82;67.50;100548.94;7392457;19;20018;-68
2023/05/15 01:47:27;;;;;;;8.10;6.50;;;;;;;9.77;67.52;100540.31;7394582;19;20014;-68
2023/05/15 01:49:59;;;;;;;7.43;6.72;;;;;;;9.75;67.55;100536.84;7394535;19;20023;-68
2023/05/15 01:52:35;;;;;;;7.57;6.47;;;;;;;9.72;67.57;100537.78;7394026;19;20400;-68
2023/05/15 01:55:06;;;;;;;10.00;7.03;;;;;;;9.71;67.47;100537.81;7399234;19;20027;-68
2023/05/15 01:57:36;;;;;;;8.43;7.53;;;;;;;9.68;67.60;100536.13;7401392;19;20031;-68
2023/05/15 02:00:10;;;;;;;8.15;7.30;;;;;;;9.65;67.67;100527.47;7402196;19;20035;-69
2023/05/15 02:02:39;;;;;;;7.97;7.28;;;;;;;9.60;67.84;100520.59;7401393;19;20027;-69
2023/05/15 02:05:10;;;;;;;8.65;7.75;;;;;;;9.58;67.84;100522.34;7399533;19;20014;-68
2023/05/15 02:07:39;;;;;;;8.68;7.55;;;;;;;9.57;68.00;100527.63;7401393;19;20031;-69
2023/05/15 02:10:10;;;;;;;8.38;7.57;;;;;;;9.55;68.11;100521.56;7400809;19;20035;-68
2023/05/15 02:12:40;;;;;;;9.25;6.85;;;;;;;9.52;68.28;100519.88;7400983;19;20018;-68
2023/05/15 02:15:12;;;;;;;8.68;7.80;;;;;;;9.49;68.07;100519.94;7397684;19;20537;-67
2023/05/15 02:17:41;;;;;;;11.57;9.65;;;;;;;9.48;68.09;100518.22;7400893;19;20035;-68
2023/05/15 02:20:11;;;;;;;11.50;8.65;;;;;;;9.45;68.22;100515.63;7398342;19;20081;-68
2023/05/15 02:22:39;;;;;;;10.45;9.10;;;;;;;9.43;68.43;100507.81;7399325;19;20025;-68
2023/05/15 02:25:08;;;;;;;8.35;7.43;;;;;;;9.41;68.49;100500.91;7397488;19;20083;-68
2023/05/15 02:27:45;;;;;;;8.30;7.60;;;;;;;9.37;68.46;100507.94;7399697;19;20035;-68
2023/05/15 02:30:25;;;;;;;8.40;7.47;;;;;;;9.35;68.45;100501.03;7400447;19;20022;-68
2023/05/15 02:33:06;;;;;;;8.73;7.38;;;;;;;9.32;68.63;100499.31;7399952;19;20023;-67
2023/05/15 02:35:41;;;;;;;8.38;7.47;;;;;;;9.28;68.58;100490.66;7397857;19;20110;-67
2023/05/15 02:38:13;;;;;;;8.77;7.90;;;;;;;9.26;68.60;100483.75;7397065;19;20031;-67
2023/05/15 02:40:42;;;;;;;8.20;7.38;;;;;;;9.22;68.89;100480.31;7400158;19;20367;-67
2023/05/15 02:43:11;;;;;;;8.35;7.53;;;;;;;9.20;68.74;100481.25;7396748;19;20023;-67
2023/05/15 02:45:43;;;;;;;10.05;7.85;;;;;;;9.18;69.13;100483.91;7397380;19;20018;-67
2023/05/15 02:48:12;;;;;;;10.07;8.38;;;;;;;9.15;69.04;100477.88;7397008;19;20029;-67
2023/05/15 02:50:41;;;;;;;8.50;7.70;;;;;;;9.12;69.20;100478.78;7399415;19;20023;-66
2023/05/15 02:53:09;;;;;;;9.70;8.00;;;;;;;9.09;69.23;100473.63;7398805;19;20380;-69
2023/05/15 02:55:39;;;;;;;11.32;7.95;;;;;;;9.05;69.54;100466.72;7399296;19;20468;-67
2023/05/15 02:58:08;;;;;;;9.55;8.70;;;;;;;9.02;69.71;100467.63;7399278;19;20114;-67
2023/05/15 03:00:36;;;;;;;10.20;8.82;;;;;;;9.02;69.95;100465.00;7399068;19;20078;-67
2023/05/15 03:03:07;;;;;;;9.27;8.25;;;;;;;9.01;70.28;100468.56;7398347;19;20031;-68
2023/05/15 03:05:36;;;;;;;9.38;8.48;;;;;;;8.98;70.28;100460.75;7397335;19;20085;-68
2023/05/15 03:08:04;;;;;;;9.80;8.23;;;;;;;8.94;70.43;100470.41;7398739;19;20081;-67
2023/05/15 03:10:33;;;;;;;9.48;8.38;;;;;;;8.91;70.52;100465.25;7398709;19;20039;-67
2023/05/15 03:13:01;;;;;;;9.85;8.18;;;;;;;8.89;70.69;100450.47;7398058;19;20098;-68
2023/05/15 03:15:30;;;;;;;8.90;7.90;;;;;;;8.86;70.81;100450.50;7398241;19;20031;-68
2023/05/15 03:17:58;;;;;;;11.52;8.23;;;;;;;8.82;70.82;100448.84;7396312;19;20035;-68
2023/05/15 03:20:29;;;;;;;9.25;8.05;;;;;;;8.78;71.12;100448.03;7397034;19;20016;-68
2023/05/15 03:22:58;;;;;;;8.93;8.00;;;;;;;8.74;70.85;100456.84;7396611;19;20043;-68
2023/05/15 03:25:27;;;;;;;8.98;7.20;;;;;;;8.68;71.03;100452.63;7398322;19;20035;-67
2023/05/15 03:27:56;;;;;;;9.35;7.38;;;;;;;8.62;71.03;100453.56;7397865;19;20041;-68
2023/05/15 03:30:24;;;;;;;9.80;7.82;;;;;;;8.59;71.19;100448.41;7398155;19;20018;-68
2023/05/15 03:32:52;;;;;;;9.32;8.43;;;;;;;8.54;71.11;100450.22;7397688;19;20018;-68
2023/05/15 03:35:21;;;;;;;10.13;9.07;;;;;;;8.52;71.37;100451.13;7395827;19;20022;-69
2023/05/15 03:37:52;;;;;;;12.90;9.73;;;;;;;8.50;71.50;100452.94;7397365;19;20486;-68
2023/05/15 03:40:20;;;;;;;10.65;9.65;;;;;;;8.46;71.75;100452.97;7397187;19;20482;-68
2023/05/15 03:42:52;;;;;;;11.98;9.45;;;;;;;8.46;71.81;100457.34;7395375;19;20070;-68
2023/05/15 03:45:20;;;;;;;10.70;9.52;;;;;;;8.45;72.17;100452.97;7397937;19;20023;-68
2023/05/15 03:47:49;;;;;;;13.50;9.75;;;;;;;8.45;72.36;100447.75;7397691;19;20021;-67
2023/05/15 03:50:18;;;;;;;10.50;9.38;;;;;;;8.46;72.37;100452.97;7397441;19;20014;-68
2023/05/15 03:52:46;;;;;;;11.35;9.60;;;;;;;8.47;72.42;100446.84;7397096;19;20015;-67
2023/05/15 03:55:17;;;;;;;12.55;9.82;;;;;;;8.50;72.63;100451.16;7395161;19;20439;-67
2023/05/15 03:57:46;;;;;;;11.48;9.25;;;;;;;8.50;72.30;100448.56;7397731;19;20014;-67
2023/05/15 04:00:15;;;;;;;10.30;8.93;;;;;;;8.52;72.39;100441.56;7397022;19;20078;-67
2023/05/15 04:02:44;;;;;;;10.98;9.43;;;;;;;8.53;72.56;100443.28;7396828;19;20025;-67
2023/05/15 04:05:12;;;;;;;11.38;10.20;;;;;;;8.56;72.51;100443.22;7394363;19;20481;-67
2023/05/15 04:07:41;;;;;;;11.40;10.15;;;;;;;8.59;72.56;100437.94;7396752;19;20023;-67
2023/05/15 04:10:10;;;;;;;10.70;9.60;;;;;;;8.62;72.58;100443.09;7397143;19;20015;-70
2023/05/15 04:12:41;;;;;;;11.55;10.43;;;;;;;8.66;72.86;100441.31;7396390;19;20018;-68
2023/05/15 04:15:17;;;;;;;11.73;10.52;;;;;;;8.69;72.93;100438.63;7396745;19;20070;-68
2023/05/15 04:17:46;;;;;;;11.95;10.77;;;;;;;8.74;72.87;100441.16;7394315;19;20021;-68
2023/05/15 04:20:16;;;;;;;12.52;10.30;;;;;;;8.78;72.73;100433.22;7393655;19;20011;-68
2023/05/15 04:22:45;;;;;;;17.70;10.43;;;;;;;8.83;72.77;100434.88;7395999;19;20015;-69
2023/05/15 04:25:15;;;;;;;11.05;9.95;;;;;;;8.88;72.49;100426.03;7394111;19;20010;-68
2023/05/15 04:27:48;;;;;;;16.85;9.70;;;;;;;8.93;72.59;100424.22;7393993;19;20011;-68
2023/05/15 04:30:22;;;;;;;10.27;9.27;;;;;;;8.99;72.67;100425.00;7396620;19;20015;-68
2023/05/15 04:32:51;;;;;;;11.40;9.90;;;;;;;9.04;72.61;100418.75;7395376;19;20433;-68
2023/05/15 04:35:20;;;;;;;13.50;10.40;;;;;;;9.09;72.41;100429.13;7395829;19;20105;-68
2023/05/15 04:37:48;;;;;;;12.30;9.15;;;;;;;9.15;72.36;100425.50;7394200;19;20087;-67
2023/05/15 04:40:17;;;;;;;13.70;9.80;;;;;;;9.20;72.26;100423.66;7395898;19;20018;-68
2023/05/15 04:42:48;;;;;;;12.40;10.90;;;;;;;9.26;72.28;100427.03;7395223;19;20059;-67
2023/05/15 04:45:16;;;;;;;11.57;10.38;;;;;;;9.32;72.11;100427.78;7394565;19;20370;-68
2023/05/15 04:47:45;;;;;;;13.48;10.48;;;;;;;9.39;72.25;100424.13;7395195;19;20485;-68
2023/05/15 04:50:13;;;;;;;12.18;10.95;;;;;;;9.45;72.17;100424.00;7395124;19;20073;-66
2023/05/15 04:52:41;;;;;;;14.70;11.68;;;;;;;9.51;72.06;100428.25;7394850;19;20086;-68
2023/05/15 04:55:11;;;;;;;15.48;11.90;;;;;;;9.57;71.87;100423.72;7394718;19;20489;-68
2023/05/15 04:57:39;;;;;;;17.40;12.95;;;;;;;9.62;71.93;100419.22;7392821;19;20010;-67
2023/05/15 05:00:13;;;;;;;12.60;11.30;;;;;;;9.69;71.86;100421.72;7392830;19;20078;-68
2023/05/15 05:02:42;;;;;;;14.38;11.40;;;;;;;9.71;71.88;100417.31;7394828;19;20087;-69
2023/05/15 05:05:13;;;;;;;13.45;11.98;;;;;;;9.76;71.70;100411.06;7392230;19;20022;-66
2023/05/15 05:07:43;;;;;;;12.65;11.35;;;;;;;9.83;71.70;100416.16;7394369;19;20035;-68
2023/05/15 05:10:12;;;;;;;12.27;11.15;;;;;;;9.88;71.59;100414.28;7391620;19;20014;-68
2023/05/15 05:12:40;;;;;;;16.83;13.52;;;;;;;9.91;71.46;100411.59;7393564;19;20015;-68
2023/05/15 05:15:12;;;;;;;14.55;11.57;;;;;;;9.96;71.51;100414.97;7394272;19;20077;-69
2023/05/15 05:17:48;;;;;;;15.00;13.50;;;;;;;10.01;71.42;100406.97;7394087;19;20087;-67
2023/05/15 05:20:16;;;;;;;16.88;14.05;;;;;;;10.04;71.27;100399.91;7392053;19;20021;-68
2023/05/15 05:22:45;;;;;;;17.10;14.07;;;;;;;10.10;71.10;100405.00;7392537;19;20137;-68
2023/05/15 05:25:13;;;;;;;14.25;12.45;;;;;;;10.16;71.21;100406.63;7391594;19;20035;-69
2023/05/15 05:27:41;;;;;;;14.02;11.98;;;;;;;10.22;71.00;100401.22;7392972;19;20098;-67
2023/05/15 05:30:14;;;;;;;13.38;12.07;;;;;;;10.27;71.09;100404.56;7398900;19;20007;-67
2023/05/15 05:32:42;;;;;;;15.40;12.93;;;;;;;10.27;70.89;100393.22;7401371;19;20457;-69
2023/05/15 05:35:11;;;;;;;13.95;11.43;;;;;;;10.36;70.66;100398.28;7398760;19;20041;-67
2023/05/15 05:37:39;;;;;;;13.52;12.13;;;;;;;10.40;70.69;100388.53;7401565;19;20424;-68
2023/05/15 05:40:10;;;;;;;14.63;12.15;;;;;;;10.45;70.68;100389.28;7401151;19;20090;-68
2023/05/15 05:42:38;;;;;;;13.23;11.35;;;;;;;10.50;70.42;100391.78;7398792;19;20015;-68
2023/05/15 05:45:08;;;;;;;13.90;11.70;;;;;;;10.54;70.45;100391.66;7397616;19;20485;-67
2023/05/15 05:47:39;;;;;;;12.55;11.38;;;;;;;10.61;70.33;100394.13;7401406;19;20015;-68
2023/05/15 05:50:09;;;;;;;13.85;11.57;;;;;;;10.68;70.10;100400.88;7398836;19;20087;-67
2023/05/15 05:52:38;;;;;;;14.27;11.85;;;;;;;10.75;69.87;100400.72;7401510;19;20025;-69
2023/05/15 05:55:07;;;;;;;15.68;12.13;;;;;;;10.83;69.83;100392.63;7401040;19;20021;-67
2023/05/15 05:57:36;;;;;;;12.85;11.52;;;;;;;10.92;69.84;100399.38;7398221;19;20074;-68
2023/05/15 06:00:07;;;;;;;11.73;10.52;;;;;;;11.01;69.61;100391.22;7401219;19;20086;-67
2023/05/15 06:02:38;;;;;;;11.70;10.50;;;;;;;11.10;69.55;100391.88;7398312;19;20025;-67
2023/05/15 06:05:08;;;;;;;11.82;10.63;;;;;;;11.19;69.50;100389.81;7399080;19;20066;-66
2023/05/15 06:07:37;;;;;;;12.35;10.27;;;;;;;11.29;69.38;100376.41;7397828;19;20019;-67
2023/05/15 06:10:08;;;;;;;12.50;11.20;;;;;;;11.37;69.12;100371.78;7399838;19;20018;-68
2023/05/15 06:12:37;;;;;;;15.40;11.05;;;;;;;11.47;68.95;100361.84;7397878;19;20018;-67
2023/05/15 06:15:06;;;;;;;13.52;11.40;;;;;;;11.56;68.75;100365.03;7397422;19;20015;-67
2023/05/15 06:17:35;;;;;;;13.38;10.13;;;;;;;11.66;68.48;100356.84;7400642;19;20090;-68
2023/05/15 06:20:08;;;;;;;10.68;9.65;;;;;;;11.75;68.18;100364.44;7398241;19;20021;-68
2023/05/15 06:22:38;;;;;;;11.90;9.85;;;;;;;11.85;67.90;100355.34;7400763;19;20089;-67
2023/05/15 06:25:12;;;;;;;18.02;10.95;;;;;;;11.96;67.29;100348.91;7397765;19;20090;-68
2023/05/15 06:27:41;;;;;;;;;;;;;;;12.06;66.52;100351.16;7400154;19;20489;-68
2023/05/15 06:30:11;;;;;;;11.07;9.35;;;;;;;12.19;66.48;100356.84;7399454;19;20294;-67
2023/05/15 06:32:39;;;;;;;12.88;8.60;;;;;;;12.31;66.07;100347.69;7399654;19;20011;-67
2023/05/15 06:35:11;;;;;;;9.30;8.43;;;;;;;12.43;65.29;100345.53;7399674;19;20082;-67
2023/05/15 06:37:40;;;;;;;9.82;7.53;;;;;;;12.59;65.06;100349.31;7399024;19;20023;-67
2023/05/15 06:40:10;;;;;;;10.82;6.93;;;;;;;12.74;64.76;100350.53;7394842;19;20039;-67
2023/05/15 06:42:38;;;;;;;8.95;7.57;;;;;;;12.89;64.24;100341.22;7397504;19;20384;-68
2023/05/15 06:45:08;;;;;;;7.65;6.95;;;;;;;13.03;63.80;100338.91;7397915;19;20020;-67
2023/05/15 06:47:37;;;;;;;8.38;6.90;;;;;;;13.18;63.28;100339.22;7399183;19;20014;-68
2023/05/15 06:50:06;;;;;;;8.27;6.50;;;;;;;13.32;62.78;100326.38;7398893;19;20537;-68
2023/05/15 06:52:37;;;;;;;10.10;6.45;;;;;;;13.46;61.74;100330.28;7396656;19;20014;-70
2023/05/15 06:55:07;;;;;;;6.97;6.28;;;;;;;13.61;61.72;100328.75;7397137;19;20086;-69
2023/05/15 06:57:35;;;;;;;7.88;6.18;;;;;;;13.74;61.14;100327.34;7398825;19;20556;-69
2023/05/15 07:00:04;;;;;;;6.28;5.68;;;;;;;13.87;60.02;100326.84;7396819;19;20039;-69
2023/05/15 07:02:33;;;;;;;10.05;5.82;;;;;;;13.99;59.98;100323.69;7399103;19;20023;-68
2023/05/15 07:05:01;;;;;;;7.25;6.30;;;;;;;14.12;59.30;100318.75;7396008;19;20025;-69
2023/05/15 07:07:30;;;;;;;12.80;6.10;;;;;;;14.24;58.65;100312.06;7398638;19;20041;-68
2023/05/15 07:10:01;;;;;;;5.65;5.13;;;;;;;14.36;57.96;100322.06;7398313;19;20025;-68
2023/05/15 07:12:31;;;;;;;5.63;5.03;;;;;;;14.46;57.84;100317.25;7398789;19;20024;-68
2023/05/15 07:15:00;;;;;;;7.50;5.53;;;;;;;14.57;57.26;100312.34;7395392;19;20041;-69
2023/05/15 07:17:28;;;;;;;6.97;5.22;;;;;;;14.68;57.19;100305.75;7397045;19;20028;-69
2023/05/15 07:19:56;;;;;;;8.52;5.53;;;;;;;14.77;56.71;100303.56;7395311;19;20143;-70
2023/05/15 07:22:25;;;;;;;7.18;4.97;;;;;;;14.88;57.09;100297.75;7397787;19;20545;-69
2023/05/15 07:24:53;;;;;;;6.15;5.50;;;;;;;14.97;57.12;100299.09;7395919;19;20082;-69
2023/05/15 07:27:25;;;;;;;6.25;5.18;;;;;;;15.06;56.89;100296.00;7395509;19;20019;-69
2023/05/15 07:29:54;;;;;;;8.50;6.22;;;;;;;15.18;56.68;100293.72;7398390;19;20025;-70
2023/05/15 07:32:23;;;;;;;7.05;5.03;;;;;;;15.30;55.99;100298.41;7396705;19;20078;-69
2023/05/15 07:34:51;;;;;;;7.95;5.00;;;;;;;15.42;55.50;100289.88;7395533;19;20029;-68
2023/05/15 07:37:19;;;;;;;7.55;5.05;;;;;;;15.56;55.21;100296.28;7398305;19;20089;-68
2023/05/15 07:39:48;;;;;;;5.45;4.80;;;;;;;15.68;54.70;100285.09;7395668;19;20010;-69
2023/05/15 07:42:16;;;;;;;6.95;5.63;;;;;;;15.80;54.61;100289.75;7397403;19;20094;-68
2023/05/15 07:44:47;;;;;;;5.20;4.70;;;;;;;15.95;53.83;100292.59;7395197;19;20404;-70
2023/05/15 07:47:16;;;;;;;9.35;5.10;;;;;;;16.10;53.34;100283.03;7397406;19;20018;-70
2023/05/15 07:49:44;;;;;;;5.82;4.85;;;;;;;16.27;53.11;100279.47;7396858;19;20017;-70
2023/05/15 07:52:13;;;;;;;6.32;5.07;;;;;;;16.47;52.66;100281.06;7397646;19;20015;-69
2023/05/15 07:54:41;;;;;;;6.60;4.57;;;;;;;16.64;51.62;100274.84;7395500;19;20026;-68
2023/05/15 07:57:11;;;;;;;6.13;5.22;;;;;;;16.81;51.77;100273.91;7396657;19;20444;-70
2023/05/15 07:59:40;;;;;;;8.48;4.50;;;;;;;16.98;50.90;100267.69;7395291;19;20106;-70
2023/05/15 08:02:11;;;;;;;6.50;4.28;;;;;;;17.12;49.77;100271.38;7396689;19;20024;-70
2023/05/15 08:04:39;;;;;;;5.35;4.85;;;;;;;17.25;49.49;100269.75;7394569;19;20090;-70
2023/05/15 08:07:08;;;;;;;6.18;4.85;;;;;;;17.39;49.37;100269.78;7394140;19;20015;-70
2023/05/15 08:09:37;;;;;;;6.18;4.65;;;;;;;17.53;48.65;100276.09;7396000;19;20015;-69
2023/05/15 08:12:21;;;;;;;7.43;4.60;;;;;;;17.66;47.01;100271.78;7396136;19;20073;-69
2023/05/15 08:14:50;;;;;;;5.43;4.18;;;;;;;17.78;47.41;100270.22;7394417;19;20041;-70
2023/05/15 08:17:22;;;;;;;6.15;4.88;;;;;;;17.88;47.24;100267.84;7394538;19;20030;-70
2023/05/15 08:19:51;;;;;;;7.25;4.53;;;;;;;17.98;46.92;100270.84;7394795;19;20014;-70
2023/05/15 08:22:19;;;;;;;4.68;4.22;;;;;;;18.05;46.57;100257.09;7395830;19;20090;-69
2023/05/15 08:24:48;;;;;;;5.38;4.85;;;;;;;18.13;46.62;100263.75;7393388;19;20485;-69
2023/05/15 08:27:16;;;;;;;7.80;4.70;;;;;;;18.20;46.76;100259.78;7395989;19;20025;-69
2023/05/15 08:29:44;;;;;;;5.70;4.53;;;;;;;18.28;46.83;100261.94;7394385;19;20082;-69
2023/05/15 08:32:13;;;;;;;5.38;4.88;;;;;;;18.35;46.22;100257.94;7395775;19;20039;-69
2023/05/15 08:34:44;;;;;;;6.40;4.32;;;;;;;18.40;45.93;100246.09;7394363;19;20022;-70
2023/05/15 08:37:12;;;;;;;4.70;4.18;;;;;;;18.50;46.18;100250.81;7394317;19;20041;-71
2023/05/15 08:39:41;;;;;;;6.53;4.88;;;;;;;18.58;46.21;100243.25;7395210;19;20097;-69
2023/05/15 08:42:16;;;;;;;7.25;4.90;;;;;;;18.68;45.89;100251.50;7395942;19;20074;-70
2023/05/15 08:44:45;;;;;;;10.35;4.68;;;;;;;18.78;45.58;100244.63;7394127;19;20025;-70
2023/05/15 08:47:16;;;;;;;9.98;4.70;;;;;;;18.88;45.36;100240.44;7395769;19;20018;-70
2023/05/15 08:49:59;;;;;;;11.20;4.97;;;;;;;18.91;44.71;100239.41;7395393;19;20544;-72
2023/05/15 08:52:28;;;;;;;9.25;4.65;;;;;;;18.95;45.19;100243.56;7394327;19;20035;-68
2023/05/15 08:54:56;;;;;;;6.10;4.50;;;;;;;19.06;45.20;100245.53;7393100;19;20085;-69
2023/05/15 08:57:25;;;;;;;9.63;4.70;;;;;;;19.19;44.71;100242.91;7395149;19;20015;-69
2023/05/15 08:59:55;;;;;;;6.28;4.57;;;;;;;19.30;44.79;100245.72;7393430;19;20077;-69
2023/05/15 09:02:26;;;;;;;8.27;4.95;;;;;;;19.44;44.41;100235.97;7393697;19;20085;-69
2023/05/15 09:04:57;;;;;;;7.68;5.47;;;;;;;19.58;44.17;100237.72;7390532;19;20050;-70
2023/05/15 09:07:26;;;;;;;4.78;4.28;;;;;;;19.67;43.97;100229.94;7394994;19;20365;-71
2023/05/15 09:09:55;;;;;;;7.13;5.10;;;;;;;19.70;43.07;100232.41;7394808;19;20369;-70
2023/05/15 09:12:26;;;;;;;6.90;4.32;;;;;;;19.69;42.83;100233.34;7393291;19;20078;-69
2023/05/15 09:15:10;;;;;;;6.80;5.07;;;;;;;19.68;42.10;100223.66;7393045;19;20167;-71
2023/05/15 09:17:39;;;;;;;;;;;;;;;19.69;42.67;100221.88;7395806;19;20021;-70
2023/05/15 09:20:26;;;;;;;6.70;4.07;;;;;;;19.70;41.42;100227.06;7393043;19;19937;-70
2023/05/15 09:22:55;;;;;;;11.85;4.75;;;;;;;19.74;42.31;100218.88;7392836;19;20039;-69
2023/05/15 09:25:39;;;;;;;5.35;4.05;;;;;;;19.79;41.83;100216.72;7393223;19;20081;-69
2023/05/15 09:28:07;;;;;;;;;;;;;;;19.79;41.01;100214.06;7393703;19;20011;-69
2023/05/15 09:30:38;;;;;;;5.25;4.57;;;;;;;19.87;42.45;100209.13;7394340;19;19923;-70
2023/05/15 09:33:07;;;;;;;5.25;4.20;;;;;;;19.96;42.42;100205.81;7392748;19;20022;-69
2023/05/15 09:35:40;;;;;;;7.90;4.65;;;;;;;20.02;42.29;100202.72;7391833;19;20021;-69
2023/05/15 09:38:11;;;;;;;5.40;3.87;;;;;;;20.05;41.67;100200.81;7394313;19;20017;-70
2023/05/15 09:40:40;;;;;;;5.07;3.65;;;;;;;20.02;40.91;100200.06;7391706;19;20452;-70
2023/05/15 09:43:12;;;;;;;5.97;3.70;;;;;;;20.00;40.05;100194.00;7393277;19;20478;-70
2023/05/15 09:45:40;;;;;;;8.18;4.78;;;;;;;19.99;40.49;100194.09;7393174;19;20364;-70
2023/05/15 09:48:10;;;;;;;7.15;4.40;;;;;;;19.99;39.90;100192.31;7393811;19;20082;-70
2023/05/15 09:50:43;;;;;;;7.45;4.57;;;;;;;19.95;39.11;100208.59;7394129;19;20015;-70
2023/05/15 09:53:14;;;;;;;5.45;4.40;;;;;;;19.92;39.00;100195.50;7391870;19;20019;-71
2023/05/15 09:55:44;;;;;;;6.40;4.35;;;;;;;19.93;39.98;100200.72;7391102;19;20015;-66
2023/05/15 09:58:14;;;;;;;5.63;3.78;;;;;;;19.92;39.39;100187.50;7391165;19;20018;-67
2023/05/15 10:00:43;;;;;;;6.15;4.80;;;;;;;19.97;39.98;100180.06;7393481;19;20025;-66
2023/05/15 10:03:13;;;;;;;5.30;4.47;;;;;;;20.02;39.61;100181.41;7392658;19;20019;-67
2023/05/15 10:05:44;;;;;;;5.53;4.20;;;;;;;20.07;39.67;100190.88;7389905;19;20015;-66
2023/05/15 10:08:13;;;;;;;9.07;4.15;;;;;;;20.12;39.45;100180.75;7391508;19;20023;-67
2023/05/15 10:10:43;;;;;;;5.43;3.25;;;;;;;20.19;38.98;100190.03;7390274;19;20513;-67
2023/05/15 10:13:13;;;;;;;7.80;3.28;;;;;;;20.28;39.56;100177.88;7390861;19;20078;-67
2023/05/15 10:15:42;;;;;;;4.05;3.65;;;;;;;20.38;39.15;100189.56;7395979;19;20025;-67
2023/05/15 10:18:10;;;;;;;7.97;3.55;;;;;;;20.48;39.23;100184.44;7400480;19;20018;-67
2023/05/15 10:20:40;;;;;;;6.80;3.58;;;;;;;20.50;38.04;100169.19;7397844;19;20101;-69
2023/05/15 10:23:12;;;;;;;4.78;3.47;;;;;;;20.55;37.80;100182.16;7398775;19;20082;-71
2023/05/15 10:25:47;;;;;;;10.02;4.03;;;;;;;20.58;37.49;100173.97;7398059;19;20075;-69
2023/05/15 10:28:17;;;;;;;4.70;3.08;;;;;;;20.61;37.68;100169.25;7398001;19;20018;-69
2023/05/15 10:30:52;;;;;;;3.65;3.35;;;;;;;20.64;37.10;100163.69;7399482;19;20472;-68
2023/05/15 10:33:22;;;;;;;6.45;3.45;;;;;;;20.64;37.19;100161.03;7396904;19;20592;-68
2023/05/15 10:35:51;;;;;;;3.88;3.45;;;;;;;20.68;37.18;100157.16;7399555;19;20074;-69
2023/05/15 10:38:23;;;;;;;5.93;3.92;;;;;;;20.79;36.68;100155.56;7396667;19;20589;-69
2023/05/15 10:40:54;;;;;;;7.18;5.03;;;;;;;20.90;36.99;100160.97;7400047;19;20102;-69
2023/05/15 10:43:22;;;;;;;5.55;4.28;;;;;;;21.04;36.95;100145.72;7397066;19;20025;-67
2023/05/15 10:45:52;;;;;;;4.68;3.70;;;;;;;21.15;36.58;100151.97;7398346;19;20021;-69
2023/05/15 10:48:22;;;;;;;4.82;3.50;;;;;;;21.22;36.23;100147.00;7398989;19;20017;-69
2023/05/15 10:50:50;;;;;;;9.45;4.90;;;;;;;21.28;36.03;100141.22;7396705;19;20082;-70
2023/05/15 10:53:22;;;;;;;5.65;3.70;;;;;;;21.35;35.91;100133.56;7399364;19;20500;-69
2023/05/15 10:55:50;;;;;;;5.57;3.92;;;;;;;21.46;35.93;100135.44;7396067;19;20023;-69
2023/05/15 10:58:19;;;;;;;6.75;3.22;;;;;;;21.58;35.54;100131.81;7398147;19;20014;-69
2023/05/15 11:00:54;;;;;;;5.45;3.38;;;;;;;21.66;33.80;100133.03;7396094;19;20486;-68
2023/05/15 11:03:38;;;;;;;7.03;4.30;;;;;;;21.68;35.25;100120.44;7396914;19;20031;-68
2023/05/15 11:06:10;;;;;;;;;;;;;;;21.66;35.21;100125.03;7396831;19;20022;-68
2023/05/15 11:08:43;;;;;;;4.53;3.60;;;;;;;21.73;35.78;100123.59;7395946;19;19922;-68
2023/05/15 11:11:55;;;;;;;5.80;3.53;;;;;;;21.83;34.91;100124.56;7397559;19;20070;-69
2023/05/15 11:14:24;;;;;;;4.15;3.75;;;;;;;21.80;35.17;100114.97;7396256;19;20049;-69
2023/05/15 11:17:05;;;;;;;5.03;4.13;;;;;;;21.77;34.78;100111.69;7395386;19;20011;-68
2023/05/15 11:19:57;;;;;;;5.72;3.42;;;;;;;21.76;34.53;100104.66;7394928;19;20026;-68
2023/05/15 11:22:34;;;;;;;7.00;4.43;;;;;;;21.76;35.08;100101.97;7394251;19;20010;-69
2023/05/15 11:25:07;;;;;;;9.52;3.85;;;;;;;21.76;34.61;100099.31;7395565;19;20018;-69
2023/05/15 11:27:41;;;;;;;7.25;3.88;;;;;;;21.76;34.63;100097.50;7393629;19;20018;-69
2023/05/15 11:30:16;;;;;;;5.82;3.33;;;;;;;21.81;34.80;100089.13;7396114;19;20337;-69
2023/05/15 11:32:57;;;;;;;5.78;3.60;;;;;;;21.86;34.71;100080.75;7395281;19;20018;-69
2023/05/15 11:35:30;;;;;;;5.32;3.80;;;;;;;21.89;35.34;100081.34;7397788;19;20070;-69
2023/05/15 11:38:00;;;;;;;6.55;3.58;;;;;;;21.95;34.87;100088.88;7397823;19;20026;-70
2023/05/15 11:40:32;;;;;;;6.47;3.72;;;;;;;21.94;34.64;100078.31;7396997;19;20018;-70